Aviation Digital Data Service (ADDS)

Output produced by METARs form (0558 UTC 27 February 2015)
found at http://aviationweather.gov/adds/metars/
 
KACK 270536Z 2706/2806 36009KT P6SM BKN070 
     FM271000 35005KT P6SM SCT050 BKN080 
     FM271600 34009KT P6SM SCT050 BKN080 
     FM272300 30006KT P6SM BKN250